sensor_id;sensor_type;location;lat;lon;timestamp;P1;durP1;ratioP1;P2;durP2;ratioP2
22332;SDS011;11334;36.986;-121.936;2023-04-28T00:02:22;1.45;;;1.27;;
22332;SDS011;11334;36.986;-121.936;2023-04-28T00:04:48;1.70;;;1.40;;
22332;SDS011;11334;36.986;-121.936;2023-04-28T00:07:14;1.40;;;1.30;;
22332;SDS011;11334;36.986;-121.936;2023-04-28T00:09:41;2.60;;;1.38;;
22332;SDS011;11334;36.986;-121.936;2023-04-28T00:12:07;1.80;;;1.33;;
22332;SDS011;11334;36.986;-121.936;2023-04-28T00:14:33;2.67;;;1.30;;
22332;SDS011;11334;36.986;-121.936;2023-04-28T00:16:59;2.58;;;1.15;;
22332;SDS011;11334;36.986;-121.936;2023-04-28T00:19:27;2.00;;;1.33;;
22332;SDS011;11334;36.986;-121.936;2023-04-28T00:21:53;2.33;;;1.67;;
22332;SDS011;11334;36.986;-121.936;2023-04-28T00:24:20;1.40;;;1.30;;
22332;SDS011;11334;36.986;-121.936;2023-04-28T00:26:46;2.97;;;1.92;;
22332;SDS011;11334;36.986;-121.936;2023-04-28T00:29:12;2.28;;;1.73;;
22332;SDS011;11334;36.986;-121.936;2023-04-28T00:31:38;2.92;;;1.20;;
22332;SDS011;11334;36.986;-121.936;2023-04-28T00:34:05;1.77;;;1.60;;
22332;SDS011;11334;36.986;-121.936;2023-04-28T00:36:31;2.38;;;1.75;;
22332;SDS011;11334;36.986;-121.936;2023-04-28T00:38:58;3.35;;;1.70;;
22332;SDS011;11334;36.986;-121.936;2023-04-28T00:41:24;3.13;;;1.90;;
22332;SDS011;11334;36.986;-121.936;2023-04-28T00:43:50;4.50;;;2.10;;
22332;SDS011;11334;36.986;-121.936;2023-04-28T00:46:19;1.90;;;1.70;;
22332;SDS011;11334;36.986;-121.936;2023-04-28T00:48:47;1.95;;;1.67;;
22332;SDS011;11334;36.986;-121.936;2023-04-28T00:51:14;3.30;;;1.30;;
22332;SDS011;11334;36.986;-121.936;2023-04-28T00:53:42;2.85;;;1.85;;
22332;SDS011;11334;36.986;-121.936;2023-04-28T00:56:08;4.25;;;1.63;;
22332;SDS011;11334;36.986;-121.936;2023-04-28T00:58:36;1.95;;;1.25;;
22332;SDS011;11334;36.986;-121.936;2023-04-28T01:01:06;3.40;;;1.30;;
22332;SDS011;11334;36.986;-121.936;2023-04-28T01:03:33;2.25;;;1.73;;
22332;SDS011;11334;36.986;-121.936;2023-04-28T01:06:03;1.85;;;1.73;;
22332;SDS011;11334;36.986;-121.936;2023-04-28T01:08:30;3.28;;;1.70;;
22332;SDS011;11334;36.986;-121.936;2023-04-28T01:10:57;2.08;;;1.40;;
22332;SDS011;11334;36.986;-121.936;2023-04-28T01:13:23;1.70;;;1.20;;
22332;SDS011;11334;36.986;-121.936;2023-04-28T01:15:50;3.15;;;1.60;;
22332;SDS011;11334;36.986;-121.936;2023-04-28T01:18:17;2.10;;;1.27;;
22332;SDS011;11334;36.986;-121.936;2023-04-28T01:20:43;2.05;;;1.40;;
22332;SDS011;11334;36.986;-121.936;2023-04-28T01:23:19;3.45;;;1.90;;
22332;SDS011;11334;36.986;-121.936;2023-04-28T01:25:45;2.75;;;1.50;;
22332;SDS011;11334;36.986;-121.936;2023-04-28T01:28:11;2.42;;;1.20;;
22332;SDS011;11334;36.986;-121.936;2023-04-28T01:30:37;2.30;;;1.50;;
22332;SDS011;11334;36.986;-121.936;2023-04-28T01:33:04;3.80;;;1.48;;
22332;SDS011;11334;36.986;-121.936;2023-04-28T01:35:30;2.30;;;1.25;;
22332;SDS011;11334;36.986;-121.936;2023-04-28T01:37:56;2.75;;;1.80;;
22332;SDS011;11334;36.986;-121.936;2023-04-28T01:40:22;2.67;;;1.92;;
22332;SDS011;11334;36.986;-121.936;2023-04-28T01:42:49;2.40;;;1.50;;
22332;SDS011;11334;36.986;-121.936;2023-04-28T01:45:15;3.10;;;1.55;;
22332;SDS011;11334;36.986;-121.936;2023-04-28T01:47:41;2.22;;;1.48;;
22332;SDS011;11334;36.986;-121.936;2023-04-28T01:50:08;2.70;;;1.33;;
22332;SDS011;11334;36.986;-121.936;2023-04-28T01:52:34;1.50;;;1.40;;
22332;SDS011;11334;36.986;-121.936;2023-04-28T01:55:01;5.60;;;1.75;;
22332;SDS011;11334;36.986;-121.936;2023-04-28T01:57:27;5.43;;;2.05;;
22332;SDS011;11334;36.986;-121.936;2023-04-28T01:59:53;5.82;;;2.25;;
22332;SDS011;11334;36.986;-121.936;2023-04-28T02:02:20;4.95;;;1.95;;
22332;SDS011;11334;36.986;-121.936;2023-04-28T02:04:46;4.10;;;1.88;;
22332;SDS011;11334;36.986;-121.936;2023-04-28T02:07:12;5.78;;;2.20;;
22332;SDS011;11334;36.986;-121.936;2023-04-28T02:09:38;4.38;;;2.40;;
22332;SDS011;11334;36.986;-121.936;2023-04-28T02:12:04;5.90;;;2.30;;
22332;SDS011;11334;36.986;-121.936;2023-04-28T02:14:31;6.05;;;2.05;;
22332;SDS011;11334;36.986;-121.936;2023-04-28T02:16:57;4.03;;;2.20;;
22332;SDS011;11334;36.986;-121.936;2023-04-28T02:19:24;3.45;;;1.88;;
22332;SDS011;11334;36.986;-121.936;2023-04-28T02:21:50;3.58;;;1.63;;
22332;SDS011;11334;36.986;-121.936;2023-04-28T02:24:16;5.25;;;2.20;;
22332;SDS011;11334;36.986;-121.936;2023-04-28T02:26:42;4.53;;;2.40;;
22332;SDS011;11334;36.986;-121.936;2023-04-28T02:29:09;5.63;;;2.70;;
22332;SDS011;11334;36.986;-121.936;2023-04-28T02:31:35;7.25;;;2.80;;
22332;SDS011;11334;36.986;-121.936;2023-04-28T02:34:01;8.07;;;2.95;;
22332;SDS011;11334;36.986;-121.936;2023-04-28T02:36:28;7.65;;;2.80;;
22332;SDS011;11334;36.986;-121.936;2023-04-28T02:38:54;7.75;;;2.78;;
22332;SDS011;11334;36.986;-121.936;2023-04-28T02:41:20;5.70;;;2.90;;
22332;SDS011;11334;36.986;-121.936;2023-04-28T02:43:47;7.65;;;2.50;;
22332;SDS011;11334;36.986;-121.936;2023-04-28T02:46:13;8.40;;;3.55;;
22332;SDS011;11334;36.986;-121.936;2023-04-28T02:48:39;7.10;;;3.42;;
22332;SDS011;11334;36.986;-121.936;2023-04-28T02:51:06;6.82;;;3.22;;
22332;SDS011;11334;36.986;-121.936;2023-04-28T02:53:32;6.68;;;2.67;;
22332;SDS011;11334;36.986;-121.936;2023-04-28T02:55:58;5.53;;;2.50;;
22332;SDS011;11334;36.986;-121.936;2023-04-28T02:58:26;5.20;;;2.40;;
22332;SDS011;11334;36.986;-121.936;2023-04-28T03:00:52;4.25;;;2.65;;
22332;SDS011;11334;36.986;-121.936;2023-04-28T03:03:18;6.43;;;3.35;;
22332;SDS011;11334;36.986;-121.936;2023-04-28T03:05:45;6.93;;;2.88;;
22332;SDS011;11334;36.986;-121.936;2023-04-28T03:08:11;7.20;;;3.25;;
22332;SDS011;11334;36.986;-121.936;2023-04-28T03:10:37;5.03;;;3.00;;
22332;SDS011;11334;36.986;-121.936;2023-04-28T03:13:03;8.30;;;2.75;;
22332;SDS011;11334;36.986;-121.936;2023-04-28T03:15:29;9.77;;;2.88;;
22332;SDS011;11334;36.986;-121.936;2023-04-28T03:17:56;5.07;;;2.90;;
22332;SDS011;11334;36.986;-121.936;2023-04-28T03:20:22;6.25;;;2.53;;
22332;SDS011;11334;36.986;-121.936;2023-04-28T03:22:48;7.93;;;3.10;;
22332;SDS011;11334;36.986;-121.936;2023-04-28T03:25:14;5.85;;;2.88;;
22332;SDS011;11334;36.986;-121.936;2023-04-28T03:27:41;5.88;;;2.85;;
22332;SDS011;11334;36.986;-121.936;2023-04-28T03:30:07;7.25;;;3.03;;
22332;SDS011;11334;36.986;-121.936;2023-04-28T03:32:34;8.23;;;3.50;;
22332;SDS011;11334;36.986;-121.936;2023-04-28T03:35:00;4.22;;;2.72;;
22332;SDS011;11334;36.986;-121.936;2023-04-28T03:37:27;7.35;;;3.35;;
22332;SDS011;11334;36.986;-121.936;2023-04-28T03:39:53;5.03;;;3.13;;
22332;SDS011;11334;36.986;-121.936;2023-04-28T03:42:19;7.35;;;4.05;;
22332;SDS011;11334;36.986;-121.936;2023-04-28T03:44:45;4.57;;;3.47;;
22332;SDS011;11334;36.986;-121.936;2023-04-28T03:47:12;7.60;;;4.10;;
22332;SDS011;11334;36.986;-121.936;2023-04-28T03:49:38;5.80;;;3.00;;
22332;SDS011;11334;36.986;-121.936;2023-04-28T03:52:04;6.97;;;3.70;;
22332;SDS011;11334;36.986;-121.936;2023-04-28T03:54:30;7.50;;;3.70;;
22332;SDS011;11334;36.986;-121.936;2023-04-28T03:56:56;8.30;;;3.53;;
22332;SDS011;11334;36.986;-121.936;2023-04-28T03:59:23;7.00;;;3.55;;
22332;SDS011;11334;36.986;-121.936;2023-04-28T04:01:50;7.40;;;3.10;;
22332;SDS011;11334;36.986;-121.936;2023-04-28T04:04:16;6.35;;;2.85;;
22332;SDS011;11334;36.986;-121.936;2023-04-28T04:06:42;3.83;;;2.95;;
22332;SDS011;11334;36.986;-121.936;2023-04-28T04:09:08;5.60;;;3.40;;
22332;SDS011;11334;36.986;-121.936;2023-04-28T04:11:35;6.38;;;3.53;;
22332;SDS011;11334;36.986;-121.936;2023-04-28T04:14:01;5.30;;;2.90;;
22332;SDS011;11334;36.986;-121.936;2023-04-28T04:16:27;4.55;;;2.80;;
22332;SDS011;11334;36.986;-121.936;2023-04-28T04:18:53;6.05;;;3.03;;
22332;SDS011;11334;36.986;-121.936;2023-04-28T04:21:20;6.10;;;3.65;;
22332;SDS011;11334;36.986;-121.936;2023-04-28T04:23:46;8.32;;;3.30;;
22332;SDS011;11334;36.986;-121.936;2023-04-28T04:26:12;8.13;;;5.50;;
22332;SDS011;11334;36.986;-121.936;2023-04-28T04:28:38;10.13;;;7.10;;
22332;SDS011;11334;36.986;-121.936;2023-04-28T04:31:05;8.73;;;6.85;;
22332;SDS011;11334;36.986;-121.936;2023-04-28T04:33:32;7.20;;;6.00;;
22332;SDS011;11334;36.986;-121.936;2023-04-28T04:35:59;7.40;;;5.13;;
22332;SDS011;11334;36.986;-121.936;2023-04-28T04:38:25;7.53;;;4.30;;
22332;SDS011;11334;36.986;-121.936;2023-04-28T04:40:51;5.68;;;3.78;;
22332;SDS011;11334;36.986;-121.936;2023-04-28T04:43:17;7.80;;;4.57;;
22332;SDS011;11334;36.986;-121.936;2023-04-28T04:45:44;6.50;;;3.83;;
22332;SDS011;11334;36.986;-121.936;2023-04-28T04:48:10;6.55;;;4.40;;
22332;SDS011;11334;36.986;-121.936;2023-04-28T04:50:36;6.93;;;4.32;;
22332;SDS011;11334;36.986;-121.936;2023-04-28T04:53:03;7.05;;;3.45;;
22332;SDS011;11334;36.986;-121.936;2023-04-28T04:55:30;6.00;;;3.08;;
22332;SDS011;11334;36.986;-121.936;2023-04-28T04:57:56;8.10;;;3.67;;
22332;SDS011;11334;36.986;-121.936;2023-04-28T05:00:22;8.23;;;3.90;;
22332;SDS011;11334;36.986;-121.936;2023-04-28T05:02:49;5.22;;;3.58;;
22332;SDS011;11334;36.986;-121.936;2023-04-28T05:05:15;6.38;;;3.40;;
22332;SDS011;11334;36.986;-121.936;2023-04-28T05:07:41;4.20;;;3.65;;
22332;SDS011;11334;36.986;-121.936;2023-04-28T05:10:08;5.15;;;3.60;;
22332;SDS011;11334;36.986;-121.936;2023-04-28T05:12:38;5.30;;;3.63;;
22332;SDS011;11334;36.986;-121.936;2023-04-28T05:15:05;7.68;;;3.88;;
22332;SDS011;11334;36.986;-121.936;2023-04-28T05:17:32;5.97;;;3.30;;
22332;SDS011;11334;36.986;-121.936;2023-04-28T05:19:59;6.03;;;3.65;;
22332;SDS011;11334;36.986;-121.936;2023-04-28T05:22:25;8.45;;;3.75;;
22332;SDS011;11334;36.986;-121.936;2023-04-28T05:24:51;6.13;;;3.95;;
22332;SDS011;11334;36.986;-121.936;2023-04-28T05:27:17;6.32;;;4.13;;
22332;SDS011;11334;36.986;-121.936;2023-04-28T05:29:44;6.68;;;4.05;;
22332;SDS011;11334;36.986;-121.936;2023-04-28T05:32:10;7.40;;;4.30;;
22332;SDS011;11334;36.986;-121.936;2023-04-28T05:34:36;7.20;;;4.30;;
22332;SDS011;11334;36.986;-121.936;2023-04-28T05:37:03;6.10;;;3.97;;
22332;SDS011;11334;36.986;-121.936;2023-04-28T05:39:29;5.50;;;3.83;;
22332;SDS011;11334;36.986;-121.936;2023-04-28T05:41:55;7.38;;;4.50;;
22332;SDS011;11334;36.986;-121.936;2023-04-28T05:44:23;5.55;;;3.70;;
22332;SDS011;11334;36.986;-121.936;2023-04-28T05:46:49;10.32;;;5.30;;
22332;SDS011;11334;36.986;-121.936;2023-04-28T05:49:15;6.47;;;4.28;;
22332;SDS011;11334;36.986;-121.936;2023-04-28T05:51:42;6.72;;;3.85;;
22332;SDS011;11334;36.986;-121.936;2023-04-28T05:54:08;7.18;;;4.35;;
22332;SDS011;11334;36.986;-121.936;2023-04-28T05:56:35;6.78;;;4.30;;
22332;SDS011;11334;36.986;-121.936;2023-04-28T05:59:01;6.88;;;4.20;;
22332;SDS011;11334;36.986;-121.936;2023-04-28T06:01:31;7.03;;;4.03;;
22332;SDS011;11334;36.986;-121.936;2023-04-28T06:03:57;7.95;;;5.03;;
22332;SDS011;11334;36.986;-121.936;2023-04-28T06:06:24;8.73;;;5.45;;
22332;SDS011;11334;36.986;-121.936;2023-04-28T06:08:52;7.40;;;5.07;;
22332;SDS011;11334;36.986;-121.936;2023-04-28T06:11:18;8.65;;;4.53;;
22332;SDS011;11334;36.986;-121.936;2023-04-28T06:13:47;9.18;;;4.85;;
22332;SDS011;11334;36.986;-121.936;2023-04-28T06:16:14;5.88;;;3.80;;
22332;SDS011;11334;36.986;-121.936;2023-04-28T06:18:41;6.60;;;3.63;;
22332;SDS011;11334;36.986;-121.936;2023-04-28T06:21:08;5.05;;;3.97;;
22332;SDS011;11334;36.986;-121.936;2023-04-28T06:23:34;5.97;;;4.22;;
22332;SDS011;11334;36.986;-121.936;2023-04-28T06:26:01;6.45;;;3.97;;
22332;SDS011;11334;36.986;-121.936;2023-04-28T06:28:27;6.47;;;4.18;;
22332;SDS011;11334;36.986;-121.936;2023-04-28T06:30:54;6.57;;;4.07;;
22332;SDS011;11334;36.986;-121.936;2023-04-28T06:33:20;6.25;;;4.15;;
22332;SDS011;11334;36.986;-121.936;2023-04-28T06:35:46;9.25;;;4.70;;
22332;SDS011;11334;36.986;-121.936;2023-04-28T06:38:12;8.27;;;5.60;;
22332;SDS011;11334;36.986;-121.936;2023-04-28T06:40:39;5.38;;;4.32;;
22332;SDS011;11334;36.986;-121.936;2023-04-28T06:43:05;4.07;;;3.67;;
22332;SDS011;11334;36.986;-121.936;2023-04-28T06:45:31;7.97;;;5.22;;
22332;SDS011;11334;36.986;-121.936;2023-04-28T06:47:57;6.15;;;4.47;;
22332;SDS011;11334;36.986;-121.936;2023-04-28T06:50:24;5.78;;;4.53;;
22332;SDS011;11334;36.986;-121.936;2023-04-28T06:52:50;7.18;;;5.10;;
22332;SDS011;11334;36.986;-121.936;2023-04-28T06:55:16;6.45;;;4.50;;
22332;SDS011;11334;36.986;-121.936;2023-04-28T06:57:43;6.43;;;5.22;;
22332;SDS011;11334;36.986;-121.936;2023-04-28T07:00:09;7.85;;;5.57;;
22332;SDS011;11334;36.986;-121.936;2023-04-28T07:02:37;7.07;;;5.07;;
22332;SDS011;11334;36.986;-121.936;2023-04-28T07:05:03;6.28;;;5.00;;
22332;SDS011;11334;36.986;-121.936;2023-04-28T07:07:29;8.38;;;4.78;;
22332;SDS011;11334;36.986;-121.936;2023-04-28T07:09:56;5.85;;;5.25;;
22332;SDS011;11334;36.986;-121.936;2023-04-28T07:12:23;5.93;;;4.82;;
22332;SDS011;11334;36.986;-121.936;2023-04-28T07:14:49;5.93;;;5.28;;
22332;SDS011;11334;36.986;-121.936;2023-04-28T07:17:16;5.88;;;5.07;;
22332;SDS011;11334;36.986;-121.936;2023-04-28T07:19:42;5.18;;;4.68;;
22332;SDS011;11334;36.986;-121.936;2023-04-28T07:22:08;6.60;;;4.80;;
22332;SDS011;11334;36.986;-121.936;2023-04-28T07:24:34;5.47;;;4.70;;
22332;SDS011;11334;36.986;-121.936;2023-04-28T07:27:00;5.10;;;4.60;;
22332;SDS011;11334;36.986;-121.936;2023-04-28T07:29:28;5.25;;;4.28;;
22332;SDS011;11334;36.986;-121.936;2023-04-28T07:32:01;5.82;;;4.90;;
22332;SDS011;11334;36.986;-121.936;2023-04-28T07:34:33;6.10;;;4.63;;
22332;SDS011;11334;36.986;-121.936;2023-04-28T07:37:02;5.00;;;4.32;;
22332;SDS011;11334;36.986;-121.936;2023-04-28T07:39:32;6.30;;;4.10;;
22332;SDS011;11334;36.986;-121.936;2023-04-28T07:41:59;5.65;;;4.60;;
22332;SDS011;11334;36.986;-121.936;2023-04-28T07:44:27;4.75;;;4.25;;
22332;SDS011;11334;36.986;-121.936;2023-04-28T07:46:54;4.68;;;4.20;;
22332;SDS011;11334;36.986;-121.936;2023-04-28T07:49:21;5.65;;;4.50;;
22332;SDS011;11334;36.986;-121.936;2023-04-28T07:51:47;4.93;;;4.28;;
22332;SDS011;11334;36.986;-121.936;2023-04-28T07:54:14;5.25;;;3.90;;
22332;SDS011;11334;36.986;-121.936;2023-04-28T07:56:40;5.30;;;4.35;;
22332;SDS011;11334;36.986;-121.936;2023-04-28T07:59:06;5.53;;;4.25;;
22332;SDS011;11334;36.986;-121.936;2023-04-28T08:01:33;4.30;;;3.90;;
22332;SDS011;11334;36.986;-121.936;2023-04-28T08:03:59;5.43;;;3.67;;
22332;SDS011;11334;36.986;-121.936;2023-04-28T08:06:25;5.13;;;3.45;;
22332;SDS011;11334;36.986;-121.936;2023-04-28T08:08:51;7.28;;;4.30;;
22332;SDS011;11334;36.986;-121.936;2023-04-28T08:11:19;4.90;;;4.40;;
22332;SDS011;11334;36.986;-121.936;2023-04-28T08:13:45;3.80;;;3.50;;
22332;SDS011;11334;36.986;-121.936;2023-04-28T08:16:13;6.10;;;4.65;;
22332;SDS011;11334;36.986;-121.936;2023-04-28T08:18:39;5.22;;;4.13;;
22332;SDS011;11334;36.986;-121.936;2023-04-28T08:21:06;5.13;;;4.63;;
22332;SDS011;11334;36.986;-121.936;2023-04-28T08:23:32;7.13;;;5.13;;
22332;SDS011;11334;36.986;-121.936;2023-04-28T08:25:58;8.98;;;4.22;;
22332;SDS011;11334;36.986;-121.936;2023-04-28T08:28:24;5.68;;;4.45;;
22332;SDS011;11334;36.986;-121.936;2023-04-28T08:30:52;5.20;;;4.60;;
22332;SDS011;11334;36.986;-121.936;2023-04-28T08:33:19;6.22;;;4.78;;
22332;SDS011;11334;36.986;-121.936;2023-04-28T08:35:46;5.30;;;4.53;;
22332;SDS011;11334;36.986;-121.936;2023-04-28T08:38:12;4.80;;;4.38;;
22332;SDS011;11334;36.986;-121.936;2023-04-28T08:40:39;4.80;;;4.40;;
22332;SDS011;11334;36.986;-121.936;2023-04-28T08:43:07;4.95;;;4.55;;
22332;SDS011;11334;36.986;-121.936;2023-04-28T08:45:41;8.15;;;5.03;;
22332;SDS011;11334;36.986;-121.936;2023-04-28T08:48:14;5.13;;;4.45;;
22332;SDS011;11334;36.986;-121.936;2023-04-28T08:50:50;5.00;;;4.45;;
22332;SDS011;11334;36.986;-121.936;2023-04-28T08:53:21;4.78;;;4.25;;
22332;SDS011;11334;36.986;-121.936;2023-04-28T08:55:51;5.13;;;4.47;;
22332;SDS011;11334;36.986;-121.936;2023-04-28T08:58:23;4.78;;;4.30;;
22332;SDS011;11334;36.986;-121.936;2023-04-28T09:00:51;6.30;;;5.32;;
22332;SDS011;11334;36.986;-121.936;2023-04-28T09:03:18;5.95;;;5.05;;
22332;SDS011;11334;36.986;-121.936;2023-04-28T09:05:45;6.07;;;4.22;;
22332;SDS011;11334;36.986;-121.936;2023-04-28T09:08:12;4.88;;;4.30;;
22332;SDS011;11334;36.986;-121.936;2023-04-28T09:10:38;5.25;;;3.78;;
22332;SDS011;11334;36.986;-121.936;2023-04-28T09:13:04;5.97;;;4.13;;
22332;SDS011;11334;36.986;-121.936;2023-04-28T09:18:02;5.60;;;4.53;;
22332;SDS011;11334;36.986;-121.936;2023-04-28T09:20:31;8.10;;;5.55;;
22332;SDS011;11334;36.986;-121.936;2023-04-28T09:23:31;5.38;;;4.88;;
22332;SDS011;11334;36.986;-121.936;2023-04-28T09:26:00;5.72;;;4.68;;
22332;SDS011;11334;36.986;-121.936;2023-04-28T09:28:28;9.18;;;5.63;;
22332;SDS011;11334;36.986;-121.936;2023-04-28T09:30:55;7.95;;;6.72;;
22332;SDS011;11334;36.986;-121.936;2023-04-28T09:33:22;7.22;;;6.00;;
22332;SDS011;11334;36.986;-121.936;2023-04-28T09:35:48;7.32;;;6.60;;
22332;SDS011;11334;36.986;-121.936;2023-04-28T09:38:15;7.38;;;6.10;;
22332;SDS011;11334;36.986;-121.936;2023-04-28T09:43:30;8.07;;;5.82;;
22332;SDS011;11334;36.986;-121.936;2023-04-28T09:46:01;7.03;;;6.28;;
22332;SDS011;11334;36.986;-121.936;2023-04-28T09:48:30;7.05;;;6.32;;
22332;SDS011;11334;36.986;-121.936;2023-04-28T09:51:01;9.02;;;6.57;;
22332;SDS011;11334;36.986;-121.936;2023-04-28T09:53:30;7.45;;;5.93;;
22332;SDS011;11334;36.986;-121.936;2023-04-28T09:55:58;5.88;;;5.28;;
22332;SDS011;11334;36.986;-121.936;2023-04-28T09:58:26;7.68;;;5.80;;
22332;SDS011;11334;36.986;-121.936;2023-04-28T10:00:54;6.63;;;5.15;;
22332;SDS011;11334;36.986;-121.936;2023-04-28T10:03:25;7.50;;;5.70;;
22332;SDS011;11334;36.986;-121.936;2023-04-28T10:05:53;6.05;;;5.45;;
22332;SDS011;11334;36.986;-121.936;2023-04-28T10:08:20;5.95;;;4.45;;
22332;SDS011;11334;36.986;-121.936;2023-04-28T10:10:49;4.93;;;4.50;;
22332;SDS011;11334;36.986;-121.936;2023-04-28T10:13:19;6.80;;;5.05;;
22332;SDS011;11334;36.986;-121.936;2023-04-28T10:15:47;8.15;;;4.40;;
22332;SDS011;11334;36.986;-121.936;2023-04-28T10:18:15;5.82;;;4.85;;
22332;SDS011;11334;36.986;-121.936;2023-04-28T10:20:46;6.28;;;4.80;;
22332;SDS011;11334;36.986;-121.936;2023-04-28T10:26:12;5.93;;;5.10;;
22332;SDS011;11334;36.986;-121.936;2023-04-28T10:28:44;3.90;;;3.40;;
22332;SDS011;11334;36.986;-121.936;2023-04-28T10:31:17;4.38;;;3.25;;
22332;SDS011;11334;36.986;-121.936;2023-04-28T10:33:45;3.17;;;2.88;;
22332;SDS011;11334;36.986;-121.936;2023-04-28T10:39:20;3.88;;;3.08;;
22332;SDS011;11334;36.986;-121.936;2023-04-28T10:41:46;3.65;;;2.92;;
22332;SDS011;11334;36.986;-121.936;2023-04-28T10:47:01;3.35;;;2.35;;
22332;SDS011;11334;36.986;-121.936;2023-04-28T11:00:44;3.95;;;3.00;;
22332;SDS011;11334;36.986;-121.936;2023-04-28T11:06:20;7.25;;;4.78;;
22332;SDS011;11334;36.986;-121.936;2023-04-28T11:08:51;4.85;;;4.05;;
22332;SDS011;11334;36.986;-121.936;2023-04-28T11:11:23;4.03;;;3.33;;
22332;SDS011;11334;36.986;-121.936;2023-04-28T11:13:54;3.75;;;3.45;;
22332;SDS011;11334;36.986;-121.936;2023-04-28T11:16:48;3.72;;;3.28;;
22332;SDS011;11334;36.986;-121.936;2023-04-28T11:22:14;3.88;;;3.25;;
22332;SDS011;11334;36.986;-121.936;2023-04-28T11:25:15;3.78;;;2.80;;
22332;SDS011;11334;36.986;-121.936;2023-04-28T11:27:34;3.30;;;3.00;;
22332;SDS011;11334;36.986;-121.936;2023-04-28T11:30:01;4.32;;;3.92;;
22332;SDS011;11334;36.986;-121.936;2023-04-28T11:32:30;5.00;;;3.97;;
22332;SDS011;11334;36.986;-121.936;2023-04-28T11:34:57;4.45;;;3.55;;
22332;SDS011;11334;36.986;-121.936;2023-04-28T11:37:24;3.55;;;2.88;;
22332;SDS011;11334;36.986;-121.936;2023-04-28T11:39:51;3.17;;;2.88;;
22332;SDS011;11334;36.986;-121.936;2023-04-28T11:42:17;3.28;;;2.80;;
22332;SDS011;11334;36.986;-121.936;2023-04-28T11:44:50;3.75;;;3.35;;
22332;SDS011;11334;36.986;-121.936;2023-04-28T11:47:30;3.95;;;3.03;;
22332;SDS011;11334;36.986;-121.936;2023-04-28T11:49:57;2.78;;;2.45;;
22332;SDS011;11334;36.986;-121.936;2023-04-28T11:52:25;3.08;;;2.20;;
22332;SDS011;11334;36.986;-121.936;2023-04-28T11:54:55;2.60;;;2.40;;
22332;SDS011;11334;36.986;-121.936;2023-04-28T11:57:25;2.38;;;2.17;;
22332;SDS011;11334;36.986;-121.936;2023-04-28T11:59:51;3.38;;;2.92;;
22332;SDS011;11334;36.986;-121.936;2023-04-28T12:02:27;3.25;;;2.85;;
22332;SDS011;11334;36.986;-121.936;2023-04-28T12:04:53;3.28;;;2.97;;
22332;SDS011;11334;36.986;-121.936;2023-04-28T12:07:20;3.28;;;2.47;;
22332;SDS011;11334;36.986;-121.936;2023-04-28T12:12:41;2.75;;;2.55;;
22332;SDS011;11334;36.986;-121.936;2023-04-28T12:15:08;3.97;;;2.83;;
22332;SDS011;11334;36.986;-121.936;2023-04-28T12:17:38;3.00;;;2.60;;
22332;SDS011;11334;36.986;-121.936;2023-04-28T12:20:08;7.07;;;2.63;;
22332;SDS011;11334;36.986;-121.936;2023-04-28T12:22:57;2.35;;;2.15;;
22332;SDS011;11334;36.986;-121.936;2023-04-28T12:25:23;3.20;;;2.30;;
22332;SDS011;11334;36.986;-121.936;2023-04-28T12:28:03;2.30;;;1.83;;
22332;SDS011;11334;36.986;-121.936;2023-04-28T12:30:32;1.83;;;1.70;;
22332;SDS011;11334;36.986;-121.936;2023-04-28T12:33:02;2.70;;;2.25;;
22332;SDS011;11334;36.986;-121.936;2023-04-28T12:35:29;2.45;;;2.05;;
22332;SDS011;11334;36.986;-121.936;2023-04-28T12:37:55;3.67;;;2.30;;
22332;SDS011;11334;36.986;-121.936;2023-04-28T12:40:23;2.30;;;2.10;;
22332;SDS011;11334;36.986;-121.936;2023-04-28T12:42:50;2.15;;;1.95;;
22332;SDS011;11334;36.986;-121.936;2023-04-28T12:45:16;2.00;;;1.90;;
22332;SDS011;11334;36.986;-121.936;2023-04-28T12:47:42;2.60;;;2.22;;
22332;SDS011;11334;36.986;-121.936;2023-04-28T12:50:09;3.15;;;2.22;;
22332;SDS011;11334;36.986;-121.936;2023-04-28T12:52:35;3.08;;;2.30;;
22332;SDS011;11334;36.986;-121.936;2023-04-28T12:55:02;4.15;;;2.15;;
22332;SDS011;11334;36.986;-121.936;2023-04-28T12:57:28;3.05;;;2.30;;
22332;SDS011;11334;36.986;-121.936;2023-04-28T12:59:55;8.93;;;2.60;;
22332;SDS011;11334;36.986;-121.936;2023-04-28T13:02:22;5.72;;;2.55;;
22332;SDS011;11334;36.986;-121.936;2023-04-28T13:04:48;2.70;;;2.13;;
22332;SDS011;11334;36.986;-121.936;2023-04-28T13:07:16;2.38;;;2.17;;
22332;SDS011;11334;36.986;-121.936;2023-04-28T13:09:42;2.03;;;1.92;;
22332;SDS011;11334;36.986;-121.936;2023-04-28T13:12:09;8.30;;;2.03;;
22332;SDS011;11334;36.986;-121.936;2023-04-28T13:14:38;1.88;;;1.77;;
22332;SDS011;11334;36.986;-121.936;2023-04-28T13:17:05;1.90;;;1.80;;
22332;SDS011;11334;36.986;-121.936;2023-04-28T13:19:32;3.45;;;2.10;;
22332;SDS011;11334;36.986;-121.936;2023-04-28T13:21:58;1.83;;;1.73;;
22332;SDS011;11334;36.986;-121.936;2023-04-28T13:24:25;2.28;;;1.75;;
22332;SDS011;11334;36.986;-121.936;2023-04-28T13:26:52;1.55;;;1.40;;
22332;SDS011;11334;36.986;-121.936;2023-04-28T13:29:18;3.38;;;2.00;;
22332;SDS011;11334;36.986;-121.936;2023-04-28T13:31:44;4.38;;;2.05;;
22332;SDS011;11334;36.986;-121.936;2023-04-28T13:34:10;2.15;;;1.95;;
22332;SDS011;11334;36.986;-121.936;2023-04-28T13:36:40;2.97;;;2.08;;
22332;SDS011;11334;36.986;-121.936;2023-04-28T13:39:07;1.95;;;1.75;;
22332;SDS011;11334;36.986;-121.936;2023-04-28T13:41:38;2.33;;;2.00;;
22332;SDS011;11334;36.986;-121.936;2023-04-28T13:44:05;2.08;;;1.92;;
22332;SDS011;11334;36.986;-121.936;2023-04-28T13:46:31;3.30;;;1.90;;
22332;SDS011;11334;36.986;-121.936;2023-04-28T13:48:57;2.50;;;2.30;;
22332;SDS011;11334;36.986;-121.936;2023-04-28T13:51:24;2.22;;;1.83;;
22332;SDS011;11334;36.986;-121.936;2023-04-28T13:53:50;3.33;;;2.40;;
22332;SDS011;11334;36.986;-121.936;2023-04-28T13:56:16;2.40;;;2.20;;
22332;SDS011;11334;36.986;-121.936;2023-04-28T13:58:43;2.17;;;1.98;;
22332;SDS011;11334;36.986;-121.936;2023-04-28T14:01:09;3.85;;;2.10;;
22332;SDS011;11334;36.986;-121.936;2023-04-28T14:03:35;2.00;;;1.80;;
22332;SDS011;11334;36.986;-121.936;2023-04-28T14:06:01;1.75;;;1.50;;
22332;SDS011;11334;36.986;-121.936;2023-04-28T14:08:28;1.60;;;1.50;;
22332;SDS011;11334;36.986;-121.936;2023-04-28T14:10:54;11.98;;;2.10;;
22332;SDS011;11334;36.986;-121.936;2023-04-28T14:13:21;12.30;;;2.30;;
22332;SDS011;11334;36.986;-121.936;2023-04-28T14:15:50;2.00;;;1.65;;
22332;SDS011;11334;36.986;-121.936;2023-04-28T14:18:18;2.47;;;2.13;;
22332;SDS011;11334;36.986;-121.936;2023-04-28T14:20:44;1.80;;;1.50;;
22332;SDS011;11334;36.986;-121.936;2023-04-28T14:23:11;1.92;;;1.83;;
22332;SDS011;11334;36.986;-121.936;2023-04-28T14:25:38;2.10;;;1.92;;
22332;SDS011;11334;36.986;-121.936;2023-04-28T14:28:04;3.33;;;1.90;;
22332;SDS011;11334;36.986;-121.936;2023-04-28T14:30:30;3.53;;;1.70;;
22332;SDS011;11334;36.986;-121.936;2023-04-28T14:32:57;1.50;;;1.40;;
22332;SDS011;11334;36.986;-121.936;2023-04-28T14:35:23;2.15;;;1.98;;
22332;SDS011;11334;36.986;-121.936;2023-04-28T14:37:51;1.95;;;1.85;;
22332;SDS011;11334;36.986;-121.936;2023-04-28T14:40:18;2.75;;;2.20;;
22332;SDS011;11334;36.986;-121.936;2023-04-28T14:42:44;2.35;;;2.15;;
22332;SDS011;11334;36.986;-121.936;2023-04-28T14:45:11;2.08;;;1.90;;